Time;durP1;ratioP1;P1;durP2;ratioP2;P2;SDS_P1;SDS_P2;PMS_P1;PMS_P2;Temp;Humidity;BMP_temperature;BMP_pressure;BME280_temperature;BME280_humidity;BME280_pressure;Samples;Min_cycle;Max_cycle;Signal;HPM_P1;HPM_P2
2021/11/30 00:01:37;;;;;;;4.70;1.60;;;;;;;-1.48;99.69;98006.74;1756321;80;21066;-73
2021/11/30 00:04:04;;;;;;;3.53;1.20;;;;;;;-1.46;99.80;97996.83;1762100;80;20978;-72
2021/11/30 00:06:34;;;;;;;2.15;1.17;;;;;;;-1.44;99.78;98005.77;1767945;80;21068;-72
2021/11/30 00:12:11;;;;;;;4.75;1.10;;;;;;;-1.46;99.47;98011.36;1702789;82;21693;-73
2021/11/30 00:14:40;;;;;;;2.13;1.10;;;;;;;-1.52;99.28;98007.23;1742811;80;21089;-72
2021/11/30 00:17:10;;;;;;;1.90;1.10;;;;;;;-1.55;99.02;98006.48;1731619;81;20977;-72
2021/11/30 00:19:38;;;;;;;1.10;0.90;;;;;;;-1.60;98.94;98012.58;1760503;80;21051;-73
2021/11/30 00:22:08;;;;;;;3.22;1.07;;;;;;;-1.64;98.90;98016.08;1764522;80;21171;-72
2021/11/30 00:24:37;;;;;;;3.40;1.00;;;;;;;-1.66;98.89;98012.71;1753111;80;22042;-73
2021/11/30 00:27:08;;;;;;;2.42;0.90;;;;;;;-1.69;98.71;98010.23;1751081;80;21063;-73
2021/11/30 00:29:35;;;;;;;2.20;0.95;;;;;;;-1.70;98.67;98010.29;1753046;80;21012;-72
2021/11/30 00:32:04;;;;;;;;;;;;;;;-1.74;98.25;98000.99;1754006;81;21055;-72
2021/11/30 00:34:31;;;;;;;2.37;1.00;;;;;;;-1.76;98.17;98006.17;1750111;80;20540;-72
2021/11/30 14:29:04;;;;;;;92.05;62.90;;;;;;;-0.23;98.98;96597.73;1877528;73;22063;-74
2021/11/30 14:31:58;;;;;;;82.45;59.18;;;;;;;-0.26;99.11;96604.31;1846045;75;20982;-76
2021/11/30 14:34:38;;;;;;;32.10;23.05;;;;;;;-0.20;99.19;96603.62;1850728;75;21119;-76
2021/11/30 14:37:28;;;;;;;14.73;11.12;;;;;;;-0.15;99.31;96608.05;1836351;75;20989;-74
2021/11/30 14:40:21;;;;;;;16.57;10.28;;;;;;;-0.16;99.22;96602.10;1829835;75;21031;-75
2021/11/30 14:43:09;;;;;;;10.58;8.43;;;;;;;-0.14;99.19;96596.88;1831449;75;20960;-76
2021/11/30 14:45:56;;;;;;;16.67;10.98;;;;;;;-0.15;99.09;96595.23;1827783;75;21054;-78
2021/11/30 14:48:39;;;;;;;20.90;12.95;;;;;;;-0.15;99.18;96605.48;1829014;75;21078;-77
2021/11/30 14:51:14;;;;;;;25.52;15.72;;;;;;;-0.14;99.21;96600.72;1835307;75;21474;-77
2021/11/30 14:53:48;;;;;;;30.02;16.80;;;;;;;-0.12;99.31;96609.16;1837970;75;20954;-80
2021/11/30 14:56:26;;;;;;;51.20;27.17;;;;;;;-0.11;99.34;96604.39;1832273;75;21646;-79
2021/11/30 14:58:53;;;;;;;46.20;23.02;;;;;;;-0.11;99.20;96604.39;1831899;75;21048;-80
2021/11/30 15:01:31;;;;;;;29.80;14.73;;;;;;;-0.14;99.15;96610.97;1836025;75;21044;-77
2021/11/30 15:04:08;;;;;;;19.92;12.40;;;;;;;-0.16;99.17;96611.53;1835086;75;20953;-76
2021/11/30 15:06:49;;;;;;;19.15;13.70;;;;;;;-0.13;99.42;96615.22;1806576;75;21034;-81
2021/11/30 15:09:20;;;;;;;30.57;17.15;;;;;;;-0.06;99.65;96628.06;1804022;75;21703;-77
2021/11/30 15:12:01;;;;;;;25.32;14.30;;;;;;;-0.03;99.65;96630.03;1838301;75;21346;-76
2021/11/30 15:14:35;;;;;;;18.75;13.00;;;;;;;-0.05;99.55;96625.89;1841166;75;21034;-75
2021/11/30 15:17:15;;;;;;;18.02;11.30;;;;;;;-0.08;99.55;96630.73;1823392;75;21358;-77
2021/11/30 15:19:48;;;;;;;14.15;10.43;;;;;;;-0.09;99.57;96635.92;1838923;75;21037;-75
2021/11/30 15:22:23;;;;;;;14.13;9.98;;;;;;;-0.08;99.70;96640.16;1841247;75;21038;-74
2021/11/30 15:24:59;;;;;;;18.30;12.00;;;;;;;-0.06;99.74;96635.75;1849270;75;21214;-74
2021/11/30 15:27:31;;;;;;;19.57;12.47;;;;;;;-0.05;99.75;96639.99;1796579;77;21081;-77
2021/11/30 15:30:03;;;;;;;22.75;15.20;;;;;;;-0.04;99.78;96650.16;1793544;77;21642;-75
2021/11/30 15:32:33;;;;;;;28.80;15.75;;;;;;;-0.02;99.78;96643.67;1803802;77;21718;-77
2021/11/30 15:35:05;;;;;;;20.92;13.45;;;;;;;-0.02;99.78;96648.34;1770010;79;21010;-76
2021/11/30 15:37:32;;;;;;;21.60;13.65;;;;;;;-0.02;99.75;96659.06;1801115;77;21048;-78
2021/11/30 15:39:59;;;;;;;17.75;12.68;;;;;;;-0.02;99.83;96664.19;1797465;77;21736;-78
2021/11/30 15:42:26;;;;;;;21.57;13.10;;;;;;;0.00;99.90;96659.81;1805477;77;21089;-77
2021/11/30 15:44:53;;;;;;;16.10;11.88;;;;;;;0.04;100.00;96663.86;1804183;77;21022;-76
2021/11/30 15:47:23;;;;;;;17.05;10.35;;;;;;;0.07;100.00;96670.10;1805006;77;21001;-78
2021/11/30 15:49:51;;;;;;;17.37;10.75;;;;;;;0.09;100.00;96674.70;1800844;77;21016;-80
2021/11/30 15:52:19;;;;;;;18.32;10.70;;;;;;;0.09;99.91;96668.30;1796381;77;21920;-79
2021/11/30 15:54:49;;;;;;;16.95;10.53;;;;;;;0.04;99.62;96672.84;1796550;77;21043;-78
2021/11/30 15:57:26;;;;;;;14.78;10.55;;;;;;;0.07;99.80;96675.23;1802731;77;21721;-79
2021/11/30 16:00:01;;;;;;;16.37;11.20;;;;;;;0.14;100.00;96674.01;1796269;77;21046;-75
2021/11/30 16:02:33;;;;;;;17.77;11.25;;;;;;;0.20;100.00;96678.80;1803112;77;22390;-76
2021/11/30 16:05:06;;;;;;;15.35;11.33;;;;;;;0.26;100.00;96684.52;1805419;78;22193;-81
2021/11/30 16:07:34;;;;;;;15.58;10.58;;;;;;;0.26;99.96;96695.60;1802575;77;20929;-77
2021/11/30 16:10:08;;;;;;;16.37;10.38;;;;;;;0.21;99.65;96693.27;1801465;77;21598;-81
2021/11/30 16:12:35;;;;;;;18.67;11.10;;;;;;;0.10;99.25;96699.44;1799134;77;22274;-92
2021/11/30 16:15:05;;;;;;;17.42;10.23;;;;;;;0.00;99.11;96702.14;1800300;77;21116;-82
2021/11/30 16:17:34;;;;;;;18.57;10.48;;;;;;;-0.09;99.01;96708.55;1770670;77;21949;-83
2021/11/30 16:20:02;;;;;;;14.83;9.95;;;;;;;-0.16;98.96;96703.85;1798170;77;20970;-85
2021/11/30 16:22:28;;;;;;;17.52;10.55;;;;;;;-0.24;98.92;96711.48;1794784;77;21168;-85
2021/11/30 16:25:03;;;;;;;22.55;15.68;;;;;;;-0.30;99.00;96705.39;1789184;77;21040;-90
2021/11/30 16:27:29;;;;;;;24.40;14.43;;;;;;;-0.28;99.35;96713.84;1792369;77;21060;-81
2021/11/30 16:29:58;;;;;;;89.58;37.23;;;;;;;-0.29;99.29;96708.31;1754194;78;21082;-83
2021/11/30 16:32:25;;;;;;;69.27;30.70;;;;;;;-0.38;99.13;96715.21;1770592;78;21028;-90
2021/11/30 16:34:52;;;;;;;33.10;18.30;;;;;;;-0.46;99.16;96714.77;1791702;78;21099;-93
2021/11/30 16:37:32;;;;;;;33.73;19.77;;;;;;;-0.48;99.30;96717.86;1749759;78;21240;-89
2021/11/30 16:39:59;;;;;;;28.45;17.98;;;;;;;-0.50;99.35;96723.55;1812843;77;21063;-85
2021/11/30 16:42:27;;;;;;;29.98;18.42;;;;;;;-0.58;99.28;96735.91;1806998;77;21749;-79
2021/11/30 16:44:55;;;;;;;64.37;36.85;;;;;;;-0.60;99.40;96737.72;1758363;77;21257;-72
2021/11/30 16:47:23;;;;;;;305.57;111.57;;;;;;;-0.65;99.44;96742.23;1795664;78;21636;-73
2021/11/30 16:49:52;;;;;;;240.20;89.92;;;;;;;-0.71;99.48;96746.75;1799793;78;21115;-74
2021/11/30 16:52:19;;;;;;;180.07;72.95;;;;;;;-0.73;99.54;96761.83;1798538;78;21678;-75
2021/11/30 16:54:47;;;;;;;142.95;57.30;;;;;;;-0.73;99.62;96758.84;1799058;76;21167;-78
2021/11/30 16:57:14;;;;;;;94.35;41.63;;;;;;;-0.78;99.54;96769.75;1782464;77;21115;-76
2021/11/30 16:59:41;;;;;;;87.08;39.42;;;;;;;-0.79;99.61;96784.73;1804636;77;21680;-78
2021/11/30 17:02:08;;;;;;;60.28;31.42;;;;;;;-0.81;99.69;96794.25;1762571;78;21599;-79
2021/11/30 17:04:35;;;;;;;55.08;27.07;;;;;;;-0.82;99.71;96792.56;1769522;79;21145;-83
2021/11/30 17:07:03;;;;;;;43.27;23.33;;;;;;;-0.83;99.75;96801.17;1770093;79;21834;-82
2021/11/30 17:09:30;;;;;;;;;;;;;;;-0.82;99.81;96804.55;1759869;78;21454;-84
2021/11/30 17:12:00;;;;;;;31.57;18.98;;;;;;;-0.83;99.86;96812.70;1745541;79;20160;-82
2021/11/30 17:14:28;;;;;;;25.77;16.25;;;;;;;-0.87;99.88;96813.73;1769443;79;21006;-84
2021/11/30 17:16:55;;;;;;;24.77;17.48;;;;;;;-0.92;99.96;96815.70;1735604;80;21127;-82
2021/11/30 17:19:22;;;;;;;24.30;16.35;;;;;;;-0.95;99.98;96829.94;1719531;80;21096;-84
2021/11/30 17:21:52;;;;;;;28.52;18.80;;;;;;;-0.97;100.00;96829.17;1799208;78;21081;-81
2021/11/30 17:24:19;;;;;;;27.25;17.82;;;;;;;-1.03;100.00;96830.75;1761970;78;21059;-83
2021/11/30 17:26:49;;;;;;;32.85;17.98;;;;;;;-1.07;100.00;96842.02;1803567;77;21034;-82
2021/11/30 17:29:18;;;;;;;27.48;17.05;;;;;;;-1.13;100.00;96851.64;1827196;77;20998;-80
2021/11/30 17:31:48;;;;;;;30.65;17.27;;;;;;;-1.16;100.00;96855.63;1834007;77;21145;-80
2021/11/30 17:34:17;;;;;;;26.45;16.97;;;;;;;-1.16;100.00;96862.48;1836436;77;21137;-78
2021/11/30 17:36:46;;;;;;;27.87;16.93;;;;;;;-1.16;100.00;96865.87;1839003;76;21053;-79
2021/11/30 17:39:13;;;;;;;33.67;19.48;;;;;;;-1.16;100.00;96873.55;1838281;77;21021;-81
2021/11/30 17:41:39;;;;;;;43.52;24.25;;;;;;;-1.16;100.00;96881.23;1812818;77;21735;-83
2021/11/30 17:44:07;;;;;;;43.38;25.32;;;;;;;-1.18;100.00;96890.70;1815589;77;21222;-81
2021/11/30 17:46:35;;;;;;;45.78;29.18;;;;;;;-1.23;100.00;96900.35;1835718;77;21042;-81
2021/11/30 17:49:05;;;;;;;45.17;28.70;;;;;;;-1.25;100.00;96909.82;1834567;77;21458;-81
2021/11/30 17:51:31;;;;;;;47.00;27.50;;;;;;;-1.25;100.00;96923.90;1833428;77;21029;-82
2021/11/30 17:53:58;;;;;;;54.93;30.02;;;;;;;-1.28;100.00;96917.64;1834163;77;21555;-83
2021/11/30 17:56:25;;;;;;;49.95;29.25;;;;;;;-1.28;100.00;96925.31;1835486;77;21055;-82
2021/11/30 17:58:52;;;;;;;;;;;;;;;-1.28;100.00;96926.60;1843311;77;21605;-84
2021/11/30 18:01:19;;;;;;;38.33;24.37;;;;;;;-1.29;100.00;96930.04;1836711;77;20587;-85
2021/11/30 18:03:45;;;;;;;41.37;23.73;;;;;;;-1.33;100.00;96934.92;1832414;77;21964;-85
2021/11/30 18:06:12;;;;;;;35.85;21.93;;;;;;;-1.35;100.00;96940.55;1833647;77;21051;-83
2021/11/30 18:08:39;;;;;;;32.83;20.35;;;;;;;-1.36;100.00;96945.30;1811036;77;21674;-84
2021/11/30 18:11:06;;;;;;;31.12;19.98;;;;;;;-1.37;100.00;96953.89;1837767;77;20939;-81
2021/11/30 18:13:34;;;;;;;34.95;20.27;;;;;;;-1.39;100.00;96959.52;1830693;77;22622;-83
2021/11/30 18:16:05;;;;;;;33.28;19.98;;;;;;;-1.39;100.00;96974.42;1840743;76;21161;-83
2021/11/30 18:18:31;;;;;;;38.58;24.00;;;;;;;-1.37;100.00;96979.48;1788457;76;20925;-83
2021/11/30 18:20:58;;;;;;;41.53;26.45;;;;;;;-1.34;100.00;96984.47;1840544;76;21224;-82
2021/11/30 18:23:27;;;;;;;35.50;22.07;;;;;;;-1.30;100.00;96986.44;1836606;77;21832;-80
2021/11/30 18:25:56;;;;;;;31.17;20.50;;;;;;;-1.29;100.00;96990.20;1838894;77;21046;-84
2021/11/30 18:28:25;;;;;;;34.23;20.92;;;;;;;-1.29;100.00;97005.55;1838641;76;21048;-84
2021/11/30 18:30:52;;;;;;;35.55;22.67;;;;;;;-1.28;100.00;97014.92;1836943;76;21567;-84
2021/11/30 18:33:19;;;;;;;;;;;;;;;-1.25;100.00;97030.14;1841405;76;21245;-84
2021/11/30 18:35:46;;;;;;;34.83;23.50;;;;;;;-1.22;100.00;97024.89;1839668;77;20525;-85
2021/11/30 18:38:14;;;;;;;39.38;23.20;;;;;;;-1.21;100.00;97023.16;1840843;77;21069;-85
2021/11/30 18:40:41;;;;;;;45.15;25.27;;;;;;;-1.19;100.00;97029.88;1836494;76;21007;-84
2021/11/30 18:43:08;;;;;;;43.83;26.40;;;;;;;-1.18;100.00;97032.80;1840295;77;20997;-83
2021/11/30 18:45:37;;;;;;;36.28;24.87;;;;;;;-1.17;100.00;97037.50;1840446;76;21347;-83
2021/11/30 18:48:05;;;;;;;43.40;26.15;;;;;;;-1.17;100.00;97053.69;1811698;77;20962;-85
2021/11/30 18:50:34;;;;;;;47.23;28.67;;;;;;;-1.16;100.00;97062.20;1838111;76;21028;-84
2021/11/30 18:53:01;;;;;;;48.80;28.38;;;;;;;-1.19;100.00;97073.41;1799307;77;21031;-83
2021/11/30 18:55:32;;;;;;;48.78;28.65;;;;;;;-1.17;100.00;97075.45;1834743;76;21036;-82
2021/11/30 18:57:57;;;;;;;47.20;27.85;;;;;;;-1.15;100.00;97090.31;1809805;77;21146;-85
2021/11/30 19:00:26;;;;;;;38.87;24.30;;;;;;;-1.13;100.00;97091.06;1833739;77;21779;-84
2021/11/30 19:02:52;;;;;;;35.63;22.25;;;;;;;-1.09;100.00;97101.17;1827004;77;21583;-82
2021/11/30 19:05:22;;;;;;;29.20;20.10;;;;;;;-1.07;100.00;97109.63;1837317;76;21139;-82
2021/11/30 19:07:49;;;;;;;32.17;22.20;;;;;;;-1.06;100.00;97122.38;1837676;77;21038;-82
2021/11/30 19:10:17;;;;;;;30.77;18.82;;;;;;;-1.03;100.00;97129.11;1836568;76;21860;-83
2021/11/30 19:12:50;;;;;;;27.77;17.32;;;;;;;-1.00;100.00;97141.78;1837223;76;20980;-84
2021/11/30 19:15:15;;;;;;;24.70;15.10;;;;;;;-0.97;100.00;97153.17;1807342;77;21111;-84
2021/11/30 19:17:44;;;;;;;16.23;11.70;;;;;;;-0.94;100.00;97157.71;1834548;76;21048;-84
2021/11/30 19:20:12;;;;;;;12.35;8.28;;;;;;;-0.87;100.00;97163.39;1807465;77;21849;-84
2021/11/30 19:22:42;;;;;;;6.70;4.60;;;;;;;-0.82;100.00;97164.04;1831889;77;21058;-85
2021/11/30 19:25:11;;;;;;;8.28;5.17;;;;;;;-0.75;100.00;97170.58;1828178;76;21019;-85
2021/11/30 19:29:31;;;;;;;6.00;3.70;;;;;;;-0.65;100.00;97188.12;1835930;76;23450;-82
2021/11/30 19:31:59;;;;;;;9.40;5.55;;;;;;;-0.66;100.00;97190.31;1817915;78;21137;-83
2021/11/30 19:34:26;;;;;;;8.83;4.40;;;;;;;-0.65;100.00;97208.62;1817394;78;23828;-86
2021/11/30 19:38:55;;;;;;;5.55;3.20;;;;;;;-0.65;100.00;97229.13;1864814;73;22048;-90
2021/11/30 19:41:22;;;;;;;4.03;2.00;;;;;;;-0.68;100.00;97237.31;1842833;75;21018;-88
2021/11/30 19:43:50;;;;;;;3.17;1.70;;;;;;;-0.67;100.00;97239.45;1838111;75;21070;-88
2021/11/30 19:46:19;;;;;;;3.83;2.50;;;;;;;-0.69;100.00;97252.31;1827322;75;20985;-88
2021/11/30 19:49:08;;;;;;;2.62;1.80;;;;;;;-0.69;100.00;97254.88;1830363;75;22214;-89
2021/11/30 19:51:35;;;;;;;3.25;2.10;;;;;;;-0.66;100.00;97259.50;1823325;75;21052;-88
2021/11/30 19:54:07;;;;;;;5.53;2.90;;;;;;;-0.65;100.00;97275.25;1834730;75;21029;-88
2021/11/30 19:56:37;;;;;;;9.13;3.72;;;;;;;-0.66;100.00;97283.84;1837538;75;21064;-86
2021/11/30 19:59:04;;;;;;;6.55;3.17;;;;;;;-0.70;100.00;97310.88;1826351;75;21052;-87
2021/11/30 20:06:55;;;;;;;5.35;2.85;;;;;;;-0.73;100.00;97332.80;1780022;75;21591;-87
2021/11/30 20:09:22;;;;;;;4.62;2.87;;;;;;;-0.75;100.00;97337.13;1827364;75;21826;-87
2021/11/30 20:11:49;;;;;;;6.78;3.27;;;;;;;-0.76;100.00;97340.57;1837955;75;21051;-87
2021/11/30 20:14:16;;;;;;;7.50;3.33;;;;;;;-0.75;100.00;97351.23;1791391;75;21096;-87
2021/11/30 20:16:43;;;;;;;5.25;3.20;;;;;;;-0.72;100.00;97354.13;1848521;75;21409;-87
2021/11/30 20:19:11;;;;;;;7.85;2.65;;;;;;;-0.70;100.00;97363.42;1827866;75;21025;-86
2021/11/30 20:21:40;;;;;;;5.03;2.83;;;;;;;-0.66;100.00;97370.52;1832636;75;21020;-87
2021/11/30 20:24:07;;;;;;;5.78;3.15;;;;;;;-0.65;100.00;97381.61;1794642;75;21059;-87
2021/11/30 20:26:39;;;;;;;5.03;3.22;;;;;;;-0.64;100.00;97389.67;1837600;75;21067;-87
2021/11/30 20:29:06;;;;;;;6.35;3.77;;;;;;;-0.63;100.00;97393.92;1841492;75;21079;-87
2021/11/30 20:31:34;;;;;;;8.03;4.15;;;;;;;-0.64;100.00;97405.05;1799414;75;21127;-87
2021/11/30 20:34:03;;;;;;;7.00;3.70;;;;;;;-0.65;100.00;97407.23;1809670;75;21202;-86
2021/11/30 20:39:19;;;;;;;;;;;;;;;-0.72;100.00;97408.77;1839746;75;22083;-86
2021/11/30 20:41:48;;;;;;;5.45;2.85;;;;;;;-0.75;100.00;97414.01;1828591;75;20256;-86
2021/11/30 20:44:36;;;;;;;6.58;3.77;;;;;;;-0.77;100.00;97426.03;1751413;80;21579;-86
2021/11/30 20:47:04;;;;;;;6.80;3.25;;;;;;;-0.80;100.00;97431.28;1757992;78;21056;-87
2021/11/30 20:49:31;;;;;;;7.15;3.55;;;;;;;-0.83;100.00;97432.68;1753809;80;22021;-86
2021/11/30 20:51:58;;;;;;;7.28;3.90;;;;;;;-0.84;100.00;97439.99;1755324;80;21620;-85
2021/11/30 20:54:26;;;;;;;8.50;3.90;;;;;;;-0.86;100.00;97456.31;1754823;80;21732;-85
2021/11/30 20:56:54;;;;;;;8.78;3.98;;;;;;;-0.88;100.00;97458.92;1753918;80;21035;-85
2021/11/30 20:59:26;;;;;;;9.43;4.72;;;;;;;-0.91;100.00;97458.58;1755820;80;23173;-85
2021/11/30 21:04:40;;;;;;;8.58;5.10;;;;;;;-0.96;100.00;97467.33;1757092;80;20885;-85
2021/11/30 21:07:04;;;;;;;6.80;4.50;;;;;;;-0.97;100.00;97474.64;1754144;80;20989;-85
2021/11/30 21:09:31;;;;;;;12.35;6.58;;;;;;;-0.99;100.00;97484.92;1746137;80;21536;-84
2021/11/30 21:11:58;;;;;;;11.63;6.83;;;;;;;-0.99;100.00;97486.66;1752711;80;21711;-85
2021/11/30 21:14:35;;;;;;;12.35;6.53;;;;;;;-0.99;100.00;97493.06;1749946;80;21012;-85
2021/11/30 21:17:00;;;;;;;11.15;6.42;;;;;;;-1.00;100.00;97505.49;1719449;80;21250;-85
2021/11/30 21:19:27;;;;;;;15.50;7.10;;;;;;;-1.07;100.00;97514.27;1753607;80;21126;-85
2021/11/30 21:21:54;;;;;;;11.85;6.62;;;;;;;-1.14;100.00;97510.66;1752483;80;22311;-85
2021/11/30 21:24:21;;;;;;;12.88;6.70;;;;;;;-1.20;100.00;97519.84;1752448;80;21031;-85
2021/11/30 21:26:48;;;;;;;13.62;6.90;;;;;;;-1.26;100.00;97522.63;1752664;80;20981;-83
2021/11/30 21:29:15;;;;;;;12.95;6.33;;;;;;;-1.34;100.00;97537.41;1753677;80;21519;-85
2021/11/30 21:31:42;;;;;;;14.00;6.87;;;;;;;-1.43;100.00;97541.55;1754598;80;21099;-85
2021/11/30 21:34:10;;;;;;;12.80;6.78;;;;;;;-1.51;100.00;97543.52;1727586;80;22197;-84
2021/11/30 21:36:38;;;;;;;15.38;7.47;;;;;;;-1.59;100.00;97545.08;1726570;80;21880;-86
2021/11/30 21:39:09;;;;;;;17.65;7.53;;;;;;;-1.64;100.00;97549.06;1754339;80;20968;-86
2021/11/30 21:41:36;;;;;;;15.53;6.78;;;;;;;-1.70;100.00;97562.06;1681575;80;21056;-85
2021/11/30 21:44:04;;;;;;;14.93;7.55;;;;;;;-1.71;100.00;97566.80;1755423;80;21014;-85
2021/11/30 21:46:32;;;;;;;;;;;;;;;-1.73;100.00;97578.80;1761470;80;21020;-82
2021/11/30 21:48:59;;;;;;;15.55;7.62;;;;;;;-1.75;100.00;97578.00;1754301;80;21157;-82
2021/11/30 21:51:26;;;;;;;12.13;7.17;;;;;;;-1.77;100.00;97584.87;1751922;81;21025;-83
2021/11/30 21:53:53;;;;;;;16.48;6.12;;;;;;;-1.79;100.00;97591.79;1755982;80;21006;-83
2021/11/30 21:56:20;;;;;;;14.63;6.62;;;;;;;-1.78;100.00;97598.56;1756768;79;27256;-83
2021/11/30 21:58:47;;;;;;;17.57;6.83;;;;;;;-1.77;100.00;97597.67;1754448;80;21394;-83
2021/11/30 22:01:15;;;;;;;15.35;7.05;;;;;;;-1.74;100.00;97601.41;1756227;80;21071;-83
2021/11/30 22:03:43;;;;;;;12.45;6.60;;;;;;;-1.72;100.00;97603.48;1727078;80;21683;-83
2021/11/30 22:06:11;;;;;;;8.80;5.40;;;;;;;-1.69;100.00;97616.17;1755582;81;20933;-85
2021/11/30 22:08:37;;;;;;;;;;;;;;;-1.68;100.00;97625.55;1759223;80;21043;-83
2021/11/30 22:11:05;;;;;;;9.75;4.97;;;;;;;-1.67;100.00;97629.77;1756759;80;20635;-85
2021/11/30 22:13:32;;;;;;;6.28;3.70;;;;;;;-1.65;100.00;97643.36;1756456;78;21038;-85
2021/11/30 22:15:59;;;;;;;8.78;4.05;;;;;;;-1.59;100.00;97648.28;1762918;80;21567;-85
2021/11/30 22:18:26;;;;;;;9.53;3.93;;;;;;;-1.52;100.00;97653.20;1756724;80;21697;-84
2021/11/30 22:20:55;;;;;;;8.28;3.75;;;;;;;-1.61;100.00;97641.08;1757760;80;21537;-84
2021/11/30 22:23:22;;;;;;;9.58;3.70;;;;;;;-1.47;100.00;97659.01;1760524;80;20989;-83
2021/11/30 22:25:49;;;;;;;7.28;3.33;;;;;;;-1.45;100.00;97675.16;1755664;80;21071;-83
2021/11/30 22:28:18;;;;;;;5.33;2.98;;;;;;;-1.39;100.00;97681.36;1755107;80;21515;-82
2021/11/30 22:30:45;;;;;;;4.60;2.50;;;;;;;-1.38;100.00;97685.59;1705751;81;21028;-82
2021/11/30 22:33:12;;;;;;;4.87;3.05;;;;;;;-1.39;100.00;97692.88;1756910;80;21091;-83
2021/11/30 22:35:40;;;;;;;4.72;2.65;;;;;;;-1.40;100.00;97693.75;1756179;80;21618;-83
2021/11/30 22:38:09;;;;;;;5.28;2.60;;;;;;;-1.40;100.00;97696.31;1757206;80;21877;-83
2021/11/30 22:40:36;;;;;;;8.75;3.62;;;;;;;-1.40;100.00;97700.15;1756013;80;20961;-83
2021/11/30 22:43:04;;;;;;;11.63;5.08;;;;;;;-1.40;100.00;97706.55;1757794;80;22226;-83
2021/11/30 22:45:32;;;;;;;10.90;5.10;;;;;;;-1.42;100.00;97711.73;1758640;81;21061;-82
2021/11/30 22:47:58;;;;;;;11.45;5.35;;;;;;;-1.42;100.00;97714.74;1761809;79;21586;-83
2021/11/30 22:50:26;;;;;;;9.03;4.90;;;;;;;-1.58;100.00;97716.48;1758497;80;21250;-82
2021/11/30 22:52:54;;;;;;;9.18;4.90;;;;;;;-1.58;100.00;97716.48;1756899;79;21521;-82
2021/11/30 22:55:26;;;;;;;7.33;4.22;;;;;;;-1.47;100.00;97737.08;1756309;80;21837;-84
2021/11/30 22:57:53;;;;;;;7.20;3.67;;;;;;;-1.48;100.00;97754.61;1752727;80;21155;-84
2021/11/30 23:00:36;;;;;;;7.28;3.50;;;;;;;-1.50;99.63;97761.48;1755400;80;21047;-84
2021/11/30 23:03:03;;;;;;;7.60;3.83;;;;;;;-1.51;99.79;97761.08;1755589;80;21579;-84
2021/11/30 23:05:30;;;;;;;8.90;3.92;;;;;;;-1.52;99.68;97765.81;1756827;80;21053;-83
2021/11/30 23:07:59;;;;;;;7.85;4.15;;;;;;;-1.55;99.71;97772.30;1753915;80;20978;-84
2021/11/30 23:10:32;;;;;;;9.38;3.98;;;;;;;-1.58;99.78;97780.45;1757769;80;21464;-84
2021/11/30 23:13:01;;;;;;;9.30;4.60;;;;;;;-1.60;99.80;97782.25;1755281;80;21568;-83
2021/11/30 23:15:29;;;;;;;9.23;3.60;;;;;;;-1.62;99.75;97790.41;1754467;80;21890;-83
2021/11/30 23:17:58;;;;;;;5.60;2.92;;;;;;;-1.67;99.60;97796.09;1756405;80;21110;-82
2021/11/30 23:20:30;;;;;;;8.13;3.70;;;;;;;-1.70;99.68;97801.30;1737010;80;21189;-82
2021/11/30 23:23:09;;;;;;;4.35;2.10;;;;;;;-1.72;99.65;97804.78;1757007;80;21097;-82
2021/11/30 23:25:53;;;;;;;6.25;2.70;;;;;;;-1.74;99.69;97816.32;1756263;80;21004;-80
2021/11/30 23:28:27;;;;;;;7.10;2.40;;;;;;;-1.77;99.64;97820.25;1757118;80;21242;-81
2021/11/30 23:31:05;;;;;;;5.15;2.35;;;;;;;-1.80;99.61;97830.58;1757503;80;20999;-81
2021/11/30 23:33:39;;;;;;;5.58;2.67;;;;;;;-1.80;99.78;97830.58;1754535;80;20982;-79
2021/11/30 23:36:09;;;;;;;3.87;1.92;;;;;;;-1.82;99.49;97825.93;1753153;80;20937;-79
2021/11/30 23:38:38;;;;;;;2.87;1.62;;;;;;;-1.88;99.10;97827.38;1753721;81;21487;-80
2021/11/30 23:41:08;;;;;;;3.37;1.47;;;;;;;-1.95;99.18;97836.96;1761138;80;21614;-80
2021/11/30 23:43:35;;;;;;;5.60;1.60;;;;;;;-2.01;99.02;97845.25;1758296;80;20988;-80
2021/11/30 23:46:03;;;;;;;10.05;5.15;;;;;;;-2.09;99.00;97848.83;1759478;80;21016;-79
2021/11/30 23:48:30;;;;;;;1.67;1.07;;;;;;;-2.15;98.98;97846.44;1760180;81;21100;-80
2021/11/30 23:50:57;;;;;;;2.05;1.00;;;;;;;-2.21;98.97;97845.33;1760877;81;20981;-80
2021/11/30 23:53:26;;;;;;;2.47;1.00;;;;;;;-2.24;99.13;97854.36;1730910;80;21630;-79
2021/11/30 23:55:55;;;;;;;2.20;1.20;;;;;;;-2.22;99.30;97858.97;1759513;80;20957;-79
2021/11/30 23:58:22;;;;;;;3.45;1.42;;;;;;;-2.23;99.26;97854.75;1756566;80;20992;-79
